createdAt,value
2023-09-22T00:00:02.537Z,20.39
2023-09-22T00:00:34.582Z,20.35
2023-09-22T00:01:06.606Z,20.35
2023-09-22T00:01:38.635Z,20.35
2023-09-22T00:02:10.733Z,20.35
2023-09-22T00:02:46.450Z,20.37
2023-09-22T00:03:18.799Z,20.36
2023-09-22T00:03:51.162Z,20.37
2023-09-22T00:04:23.196Z,20.37
2023-09-22T00:04:55.472Z,20.31
2023-09-22T00:05:27.567Z,20.31
2023-09-22T00:05:59.716Z,20.32
2023-09-22T00:06:31.743Z,20.31
2023-09-22T00:07:03.713Z,20.29
2023-09-22T00:07:35.674Z,20.28
2023-09-22T00:08:08.049Z,20.29
2023-09-22T00:08:40.322Z,20.28
2023-09-22T00:09:12.461Z,20.24
2023-09-22T00:09:44.417Z,20.26
2023-09-22T00:10:16.540Z,20.29
2023-09-22T00:10:48.609Z,20.29
2023-09-22T00:11:20.597Z,20.30
2023-09-22T00:11:52.516Z,20.30
2023-09-22T00:12:24.453Z,20.25
2023-09-22T00:12:56.531Z,20.23
2023-09-22T00:13:28.456Z,20.23
2023-09-22T00:14:00.398Z,20.29
2023-09-22T00:14:32.512Z,20.27
2023-09-22T00:15:07.175Z,20.26
2023-09-22T00:15:39.151Z,20.23
2023-09-22T00:16:11.354Z,20.23
2023-09-22T00:16:44.157Z,20.24
2023-09-22T00:17:17.527Z,20.25
2023-09-22T00:17:49.677Z,20.29
2023-09-22T00:18:21.916Z,20.25
2023-09-22T00:18:53.856Z,20.20
2023-09-22T00:19:26.192Z,20.22
2023-09-22T00:19:58.104Z,20.23
2023-09-22T00:20:31.391Z,20.23
2023-09-22T00:21:05.850Z,20.19
2023-09-22T00:21:37.952Z,20.15
2023-09-22T00:22:11.201Z,20.12
2023-09-22T00:22:44.473Z,20.11
2023-09-22T00:23:16.415Z,20.13
2023-09-22T00:23:48.350Z,20.11
2023-09-22T00:24:21.195Z,20.12
2023-09-22T00:24:53.216Z,20.12
2023-09-22T00:25:25.194Z,20.10
2023-09-22T00:25:57.125Z,20.06
2023-09-22T00:26:29.039Z,20.10
2023-09-22T00:27:01.079Z,20.12
2023-09-22T00:27:33.350Z,20.11
2023-09-22T00:28:05.660Z,20.08
2023-09-22T00:28:37.629Z,20.09
2023-09-22T00:29:09.573Z,20.05
2023-09-22T00:29:41.732Z,20.02
2023-09-22T00:30:13.875Z,19.99
2023-09-22T00:30:45.869Z,20.02
2023-09-22T00:31:18.053Z,19.99
2023-09-22T00:31:50.123Z,19.95
2023-09-22T00:32:22.595Z,19.95
2023-09-22T00:32:54.684Z,19.95
2023-09-22T00:33:26.809Z,19.96
2023-09-22T00:33:58.868Z,19.96
2023-09-22T00:34:32.381Z,19.96
2023-09-22T00:35:05.276Z,19.90
2023-09-22T00:35:37.271Z,19.92
2023-09-22T00:36:09.636Z,19.95
2023-09-22T00:36:41.628Z,19.94
2023-09-22T00:37:13.975Z,19.90
2023-09-22T00:37:45.898Z,19.87
2023-09-22T00:38:17.925Z,19.86
2023-09-22T00:38:49.879Z,19.89
2023-09-22T00:39:22.151Z,19.86
2023-09-22T00:39:55.345Z,19.84
2023-09-22T00:40:27.375Z,19.85
2023-09-22T00:40:59.335Z,19.85
2023-09-22T00:41:31.665Z,19.85
2023-09-22T00:42:06.849Z,19.86
2023-09-22T00:42:38.844Z,19.83
2023-09-22T00:43:11.780Z,19.76
2023-09-22T00:43:44.074Z,19.73
2023-09-22T00:44:16.642Z,19.76
2023-09-22T00:44:48.722Z,19.70
2023-09-22T00:45:21.142Z,19.73
2023-09-22T00:45:54.357Z,19.76
2023-09-22T00:46:27.416Z,19.73
2023-09-22T00:47:00.790Z,19.73
2023-09-22T00:47:32.821Z,19.70
2023-09-22T00:48:05.626Z,19.66
2023-09-22T00:48:38.887Z,19.62
2023-09-22T00:49:11.421Z,19.65
2023-09-22T00:49:44.162Z,19.64
2023-09-22T00:50:16.261Z,19.63
2023-09-22T00:50:49.126Z,19.62
2023-09-22T00:51:21.153Z,19.61
2023-09-22T00:51:53.332Z,19.62
2023-09-22T00:52:26.690Z,19.58
2023-09-22T00:52:58.744Z,19.58
2023-09-22T00:53:32.867Z,19.65
2023-09-22T00:54:04.951Z,19.63
2023-09-22T00:54:37.779Z,19.64
2023-09-22T00:55:10.786Z,19.65
2023-09-22T00:55:42.958Z,19.61
2023-09-22T00:56:16.967Z,19.60
2023-09-22T00:56:49.204Z,19.59
2023-09-22T00:57:21.581Z,19.61
2023-09-22T00:57:53.648Z,19.61
2023-09-22T00:58:25.660Z,19.62
2023-09-22T00:58:57.895Z,19.63
2023-09-22T00:59:29.862Z,19.57
2023-09-22T01:00:01.838Z,19.56
2023-09-22T01:00:34.473Z,19.55
2023-09-22T01:01:06.559Z,19.59
2023-09-22T01:01:38.708Z,19.51
2023-09-22T01:02:12.404Z,19.57
2023-09-22T01:02:44.524Z,19.56
2023-09-22T01:03:17.158Z,19.53
2023-09-22T01:03:55.033Z,19.52
2023-09-22T01:04:27.849Z,19.45
2023-09-22T01:04:59.833Z,19.49
2023-09-22T01:05:34.233Z,19.52
2023-09-22T01:06:10.403Z,19.51
2023-09-22T01:06:44.847Z,19.50
2023-09-22T01:07:17.094Z,19.47
2023-09-22T01:07:49.009Z,19.47
2023-09-22T01:08:20.946Z,19.49
2023-09-22T01:08:52.872Z,19.50
2023-09-22T01:09:26.547Z,19.52
2023-09-22T01:10:08.709Z,19.52
2023-09-22T01:10:43.908Z,19.47
2023-09-22T01:11:15.839Z,19.49
2023-09-22T01:11:47.797Z,19.50
2023-09-22T01:12:19.786Z,19.44
2023-09-22T01:12:52.450Z,19.42
2023-09-22T01:13:24.382Z,19.43
2023-09-22T01:13:56.313Z,19.48
2023-09-22T01:14:28.288Z,19.50
2023-09-22T01:15:01.613Z,19.52
2023-09-22T01:15:38.330Z,19.51
2023-09-22T01:16:10.473Z,19.46
2023-09-22T01:16:42.850Z,19.46
2023-09-22T01:17:15.064Z,19.45
2023-09-22T01:17:47.048Z,19.44
2023-09-22T01:18:19.095Z,19.43
2023-09-22T01:18:51.108Z,19.41
2023-09-22T01:19:23.079Z,19.47
2023-09-22T01:19:55.002Z,19.47
2023-09-22T01:20:26.930Z,19.46
2023-09-22T01:20:59.303Z,19.44
2023-09-22T01:21:32.995Z,19.42
2023-09-22T01:22:06.598Z,19.41
2023-09-22T01:22:38.617Z,19.40
2023-09-22T01:23:13.383Z,19.39
2023-09-22T01:23:45.441Z,19.37
2023-09-22T01:24:17.523Z,19.40
2023-09-22T01:24:49.775Z,19.42
2023-09-22T01:25:21.697Z,19.37
2023-09-22T01:25:53.807Z,19.36
2023-09-22T01:26:25.801Z,19.39
2023-09-22T01:26:57.786Z,19.37
2023-09-22T01:27:29.788Z,19.39
2023-09-22T01:28:01.823Z,19.38
2023-09-22T01:28:34.078Z,19.33
2023-09-22T01:29:09.813Z,19.29
2023-09-22T01:29:41.784Z,19.28
2023-09-22T01:30:15.737Z,19.26
2023-09-22T01:30:48.381Z,19.32
2023-09-22T01:31:20.498Z,19.32
2023-09-22T01:31:52.567Z,19.35
2023-09-22T01:32:24.650Z,19.34
2023-09-22T01:32:56.661Z,19.30
2023-09-22T01:33:29.222Z,19.31
2023-09-22T01:34:04.691Z,19.29
2023-09-22T01:34:37.005Z,19.30
2023-09-22T01:35:09.724Z,19.25
2023-09-22T01:35:42.065Z,19.27
2023-09-22T01:36:17.198Z,19.27
2023-09-22T01:36:49.202Z,19.27
2023-09-22T01:37:30.004Z,19.27
2023-09-22T01:38:14.340Z,19.23
2023-09-22T01:38:46.450Z,19.23
2023-09-22T01:39:19.138Z,19.19
2023-09-22T01:39:52.292Z,19.21
2023-09-22T01:40:24.349Z,19.16
2023-09-22T01:40:59.272Z,19.19
2023-09-22T01:41:31.367Z,19.16
2023-09-22T01:42:03.472Z,19.16
2023-09-22T01:42:36.122Z,19.15
2023-09-22T01:43:08.098Z,19.16
2023-09-22T01:43:40.422Z,19.13
2023-09-22T01:44:12.409Z,19.12
2023-09-22T01:44:44.444Z,19.17
2023-09-22T01:45:16.882Z,19.13
2023-09-22T01:45:48.976Z,19.10
2023-09-22T01:46:21.173Z,19.10
2023-09-22T01:46:53.193Z,19.12
2023-09-22T01:47:25.227Z,19.08
2023-09-22T01:47:57.193Z,19.04
2023-09-22T01:48:29.197Z,19.05
2023-09-22T01:49:01.185Z,19.09
2023-09-22T01:49:33.325Z,19.09
2023-09-22T01:50:05.893Z,19.09
2023-09-22T01:50:41.861Z,19.09
2023-09-22T01:51:13.769Z,19.08
2023-09-22T01:51:45.709Z,19.05
2023-09-22T01:52:18.109Z,19.09
2023-09-22T01:52:50.115Z,19.06
2023-09-22T01:53:22.040Z,19.06
2023-09-22T01:53:56.628Z,19.02
2023-09-22T01:54:28.660Z,19.04
2023-09-22T01:55:00.669Z,19.06
2023-09-22T01:55:33.084Z,19.13
2023-09-22T01:56:06.986Z,19.11
2023-09-22T01:56:38.906Z,19.08
2023-09-22T01:57:10.819Z,19.09
2023-09-22T01:57:42.880Z,19.06
2023-09-22T01:58:14.836Z,19.03
2023-09-22T01:58:46.944Z,19.01
2023-09-22T01:59:18.953Z,19.02
2023-09-22T01:59:50.965Z,19.03
2023-09-22T02:00:22.914Z,19.02
2023-09-22T02:00:55.314Z,19.05
2023-09-22T02:01:27.367Z,19.04
2023-09-22T02:01:59.401Z,19.06
2023-09-22T02:02:31.719Z,19.01
2023-09-22T02:03:04.364Z,19.01
2023-09-22T02:03:36.497Z,19.00
2023-09-22T02:04:09.077Z,19.02
2023-09-22T02:04:41.506Z,19.04
2023-09-22T02:05:15.796Z,19.00
2023-09-22T02:05:47.814Z,19.00
2023-09-22T02:06:19.755Z,19.00
2023-09-22T02:06:53.027Z,19.03
2023-09-22T02:07:25.037Z,19.02
2023-09-22T02:07:58.489Z,19.02
2023-09-22T02:08:30.398Z,18.98
2023-09-22T02:09:02.898Z,19.03
2023-09-22T02:09:35.354Z,19.06
2023-09-22T02:10:08.037Z,19.03
2023-09-22T02:10:39.967Z,18.99
2023-09-22T02:11:13.169Z,19.03
2023-09-22T02:11:45.226Z,19.00
2023-09-22T02:12:17.167Z,18.98
2023-09-22T02:12:49.236Z,19.00
2023-09-22T02:13:21.218Z,19.00
2023-09-22T02:13:53.126Z,18.98
2023-09-22T02:14:25.050Z,18.95
2023-09-22T02:14:57.838Z,18.90
2023-09-22T02:15:29.800Z,18.92
2023-09-22T02:16:02.079Z,18.95
2023-09-22T02:16:34.183Z,18.92
2023-09-22T02:17:06.181Z,18.91
2023-09-22T02:17:39.404Z,18.90
2023-09-22T02:18:12.962Z,18.93
2023-09-22T02:18:45.263Z,18.95
2023-09-22T02:19:17.507Z,18.92
2023-09-22T02:19:49.453Z,18.91
2023-09-22T02:20:24.603Z,18.93
2023-09-22T02:20:56.508Z,18.95
2023-09-22T02:21:28.616Z,18.92
2023-09-22T02:22:03.147Z,18.89
2023-09-22T02:22:35.100Z,18.92
2023-09-22T02:23:07.011Z,18.91
2023-09-22T02:23:42.216Z,18.94
2023-09-22T02:24:14.174Z,18.94
2023-09-22T02:24:47.087Z,18.88
2023-09-22T02:25:19.514Z,18.90
2023-09-22T02:25:51.424Z,18.92
2023-09-22T02:26:23.375Z,18.91
2023-09-22T02:26:55.318Z,18.91
2023-09-22T02:27:27.784Z,18.90
2023-09-22T02:28:00.221Z,18.89
2023-09-22T02:28:32.172Z,18.88
2023-09-22T02:29:04.161Z,18.89
2023-09-22T02:29:36.112Z,18.91
2023-09-22T02:30:09.471Z,18.89
2023-09-22T02:30:41.469Z,18.89
2023-09-22T02:31:13.835Z,18.88
2023-09-22T02:31:46.250Z,18.85
2023-09-22T02:32:18.262Z,18.86
2023-09-22T02:32:50.783Z,18.85
2023-09-22T02:33:22.867Z,18.89
2023-09-22T02:33:54.901Z,18.83
2023-09-22T02:34:26.899Z,18.86
2023-09-22T02:34:59.357Z,18.86
2023-09-22T02:35:31.264Z,18.85
2023-09-22T02:36:06.068Z,18.87
2023-09-22T02:36:39.934Z,18.85
2023-09-22T02:37:11.861Z,18.84
2023-09-22T02:37:43.862Z,18.84
2023-09-22T02:38:15.779Z,18.87
2023-09-22T02:38:47.743Z,18.84
2023-09-22T02:39:19.652Z,18.82
2023-09-22T02:39:51.654Z,18.81
2023-09-22T02:40:23.587Z,18.78
2023-09-22T02:40:55.539Z,18.80
2023-09-22T02:41:27.725Z,18.80
2023-09-22T02:41:59.627Z,18.88
2023-09-22T02:42:31.575Z,18.89
2023-09-22T02:43:04.738Z,18.82
2023-09-22T02:43:36.761Z,18.79
2023-09-22T02:44:10.060Z,18.79
2023-09-22T02:44:42.096Z,18.80
2023-09-22T02:45:14.562Z,18.82
2023-09-22T02:45:46.801Z,18.75
2023-09-22T02:46:19.002Z,18.82
2023-09-22T02:46:51.117Z,18.82
2023-09-22T02:47:23.680Z,18.81
2023-09-22T02:47:55.785Z,18.76
2023-09-22T02:48:27.793Z,18.76
2023-09-22T02:48:59.784Z,18.73
2023-09-22T02:49:31.813Z,18.76
2023-09-22T02:50:05.202Z,18.74
2023-09-22T02:50:39.470Z,18.76
2023-09-22T02:51:11.412Z,18.80
2023-09-22T02:51:43.422Z,18.81
2023-09-22T02:52:15.430Z,18.82
2023-09-22T02:52:47.444Z,18.75
2023-09-22T02:53:19.404Z,18.74
2023-09-22T02:53:51.838Z,18.72
2023-09-22T02:54:24.232Z,18.72
2023-09-22T02:54:57.116Z,18.71
2023-09-22T02:55:29.077Z,18.71
2023-09-22T02:56:06.970Z,18.74
2023-09-22T02:56:38.974Z,18.75
2023-09-22T02:57:10.987Z,18.73
2023-09-22T02:57:44.223Z,18.71
2023-09-22T02:58:16.305Z,18.71
2023-09-22T02:58:49.296Z,18.74
2023-09-22T02:59:21.234Z,18.73
2023-09-22T02:59:56.527Z,18.73
2023-09-22T03:00:28.893Z,18.70
2023-09-22T03:01:01.039Z,18.67
2023-09-22T03:01:33.245Z,18.66
2023-09-22T03:02:05.253Z,18.64
2023-09-22T03:02:37.245Z,18.63
2023-09-22T03:03:09.329Z,18.61
2023-09-22T03:03:44.760Z,18.64
2023-09-22T03:04:17.144Z,18.66
2023-09-22T03:04:49.149Z,18.66
2023-09-22T03:05:24.054Z,18.62
2023-09-22T03:06:00.484Z,18.62
2023-09-22T03:06:32.451Z,18.63
2023-09-22T03:07:04.419Z,18.58
2023-09-22T03:07:36.342Z,18.56
2023-09-22T03:08:08.241Z,18.56
2023-09-22T03:08:43.992Z,18.55
2023-09-22T03:09:16.576Z,18.58
2023-09-22T03:09:48.598Z,18.53
2023-09-22T03:10:20.613Z,18.54
2023-09-22T03:10:52.543Z,18.56
2023-09-22T03:11:24.557Z,18.52
2023-09-22T03:11:56.485Z,18.49
2023-09-22T03:12:28.494Z,18.49
2023-09-22T03:13:00.590Z,18.50
2023-09-22T03:13:32.882Z,18.55
2023-09-22T03:14:05.209Z,18.62
2023-09-22T03:14:37.196Z,18.60
2023-09-22T03:15:13.074Z,18.62
2023-09-22T03:15:45.127Z,18.64
2023-09-22T03:16:17.206Z,18.60
2023-09-22T03:16:49.597Z,18.64
2023-09-22T03:17:21.565Z,18.64
2023-09-22T03:17:53.530Z,18.60
2023-09-22T03:18:25.794Z,18.61
2023-09-22T03:18:58.125Z,18.62
2023-09-22T03:19:30.129Z,18.57
2023-09-22T03:20:02.059Z,18.52
2023-09-22T03:20:33.977Z,18.52
2023-09-22T03:21:06.420Z,18.53
2023-09-22T03:21:38.518Z,18.55
2023-09-22T03:22:10.426Z,18.58
2023-09-22T03:22:42.547Z,18.61
2023-09-22T03:23:14.492Z,18.54
2023-09-22T03:23:47.595Z,18.57
2023-09-22T03:24:19.558Z,18.54
2023-09-22T03:24:51.575Z,18.50
2023-09-22T03:25:23.526Z,18.45
2023-09-22T03:25:55.845Z,18.43
2023-09-22T03:26:27.770Z,18.46
2023-09-22T03:26:59.797Z,18.42
2023-09-22T03:27:37.716Z,18.40
2023-09-22T03:28:09.801Z,18.42
2023-09-22T03:28:42.224Z,18.44
2023-09-22T03:29:14.137Z,18.46
2023-09-22T03:29:46.144Z,18.45
2023-09-22T03:30:18.989Z,18.41
2023-09-22T03:30:50.994Z,18.41
2023-09-22T03:31:24.240Z,18.36
2023-09-22T03:31:56.283Z,18.40
2023-09-22T03:32:28.729Z,18.38
2023-09-22T03:33:01.318Z,18.40
2023-09-22T03:33:33.310Z,18.37
2023-09-22T03:34:05.793Z,18.38
2023-09-22T03:34:37.806Z,18.37
2023-09-22T03:35:10.087Z,18.39
2023-09-22T03:35:42.138Z,18.38
2023-09-22T03:36:14.650Z,18.36
2023-09-22T03:36:46.603Z,18.36
2023-09-22T03:37:20.055Z,18.38
2023-09-22T03:37:53.618Z,18.37
2023-09-22T03:38:27.238Z,18.34
2023-09-22T03:38:59.161Z,18.40
2023-09-22T03:39:32.071Z,18.40
2023-09-22T03:40:27.366Z,18.38
2023-09-22T03:41:02.140Z,18.34
2023-09-22T03:41:36.588Z,18.37
2023-09-22T03:42:08.773Z,18.34
2023-09-22T03:42:42.188Z,18.37
2023-09-22T03:43:14.213Z,18.40
2023-09-22T03:43:46.777Z,18.36
2023-09-22T03:44:18.680Z,18.35
2023-09-22T03:44:52.139Z,18.33
2023-09-22T03:45:24.180Z,18.31
2023-09-22T03:45:56.366Z,18.28
2023-09-22T03:46:28.331Z,18.31
2023-09-22T03:47:01.145Z,18.33
2023-09-22T03:47:33.748Z,18.35
2023-09-22T03:48:06.266Z,18.34
2023-09-22T03:48:38.987Z,18.35
2023-09-22T03:49:10.970Z,18.31
2023-09-22T03:49:42.941Z,18.31
2023-09-22T03:50:15.877Z,18.34
2023-09-22T03:50:48.173Z,18.35
2023-09-22T03:51:20.103Z,18.32
2023-09-22T03:51:52.269Z,18.31
2023-09-22T03:52:24.188Z,18.27
2023-09-22T03:52:56.128Z,18.30
2023-09-22T03:53:28.630Z,18.28
2023-09-22T03:54:00.634Z,18.31
2023-09-22T03:54:32.578Z,18.35
2023-09-22T03:55:04.836Z,18.36
2023-09-22T03:55:37.716Z,18.37
2023-09-22T03:56:10.361Z,18.31
2023-09-22T03:56:42.586Z,18.33
2023-09-22T03:57:14.481Z,18.35
2023-09-22T03:57:46.469Z,18.32
2023-09-22T03:58:18.537Z,18.34
2023-09-22T03:58:50.477Z,18.34
2023-09-22T03:59:22.394Z,18.34
2023-09-22T03:59:54.304Z,18.34
2023-09-22T04:00:29.888Z,18.33
2023-09-22T04:01:06.906Z,18.29
2023-09-22T04:01:40.259Z,18.34
2023-09-22T04:02:12.268Z,18.36
2023-09-22T04:02:45.403Z,18.36
2023-09-22T04:03:19.078Z,18.37
2023-09-22T04:03:51.403Z,18.38
2023-09-22T04:04:23.623Z,18.37
2023-09-22T04:04:55.741Z,18.37
2023-09-22T04:05:27.718Z,18.36
2023-09-22T04:05:59.938Z,18.37
2023-09-22T04:06:32.435Z,18.38
2023-09-22T04:07:04.673Z,18.38
2023-09-22T04:07:36.746Z,18.40
2023-09-22T04:08:08.692Z,18.37
2023-09-22T04:08:40.667Z,18.37
2023-09-22T04:09:12.734Z,18.36
2023-09-22T04:09:45.841Z,18.34
2023-09-22T04:10:18.530Z,18.36
2023-09-22T04:10:50.728Z,18.33
2023-09-22T04:11:22.631Z,18.36
2023-09-22T04:11:54.546Z,18.35
2023-09-22T04:12:26.997Z,18.34
2023-09-22T04:12:59.028Z,18.38
2023-09-22T04:13:31.293Z,18.33
2023-09-22T04:14:04.062Z,18.30
2023-09-22T04:14:40.823Z,18.27
2023-09-22T04:15:14.326Z,18.26
2023-09-22T04:15:46.893Z,18.27
2023-09-22T04:16:18.916Z,18.31
2023-09-22T04:16:51.469Z,18.29
2023-09-22T04:17:23.742Z,18.28
2023-09-22T04:17:55.931Z,18.26
2023-09-22T04:18:30.648Z,18.27
2023-09-22T04:19:02.676Z,18.29
2023-09-22T04:19:34.720Z,18.31
2023-09-22T04:20:09.591Z,18.29
2023-09-22T04:20:45.414Z,18.32
2023-09-22T04:21:17.560Z,18.29
2023-09-22T04:21:51.072Z,18.28
2023-09-22T04:22:23.157Z,18.24
2023-09-22T04:22:55.060Z,18.26
2023-09-22T04:23:27.038Z,18.24
2023-09-22T04:23:58.984Z,18.20
2023-09-22T04:24:33.565Z,18.21
2023-09-22T04:25:12.062Z,18.20
2023-09-22T04:25:43.992Z,18.23
2023-09-22T04:26:17.782Z,18.24
2023-09-22T04:26:50.468Z,18.26
2023-09-22T04:27:22.397Z,18.28
2023-09-22T04:27:56.246Z,18.29
2023-09-22T04:28:28.352Z,18.31
2023-09-22T04:29:01.210Z,18.26
2023-09-22T04:29:37.131Z,18.28
2023-09-22T04:30:10.785Z,18.28
2023-09-22T04:30:42.914Z,18.29
2023-09-22T04:31:14.978Z,18.28
2023-09-22T04:31:46.990Z,18.27
2023-09-22T04:32:19.611Z,18.32
2023-09-22T04:32:53.004Z,18.34
2023-09-22T04:33:25.187Z,18.33
2023-09-22T04:33:57.127Z,18.36
2023-09-22T04:34:29.310Z,18.41
2023-09-22T04:35:02.143Z,18.39
2023-09-22T04:35:34.126Z,18.39
2023-09-22T04:36:06.274Z,18.39
2023-09-22T04:36:38.236Z,18.39
2023-09-22T04:37:10.238Z,18.38
2023-09-22T04:37:42.173Z,18.39
2023-09-22T04:38:15.691Z,18.41
2023-09-22T04:38:47.634Z,18.41
2023-09-22T04:39:22.652Z,18.40
2023-09-22T04:39:55.892Z,18.41
2023-09-22T04:40:30.938Z,18.44
2023-09-22T04:41:02.984Z,18.41
2023-09-22T04:41:34.916Z,18.44
2023-09-22T04:42:06.839Z,18.46
2023-09-22T04:42:39.137Z,18.48
2023-09-22T04:43:12.460Z,18.51
2023-09-22T04:43:44.546Z,18.54
2023-09-22T04:44:17.156Z,18.57
2023-09-22T04:44:52.147Z,18.58
2023-09-22T04:45:24.715Z,18.60
2023-09-22T04:45:56.918Z,18.60
2023-09-22T04:46:29.268Z,18.62
2023-09-22T04:47:01.403Z,18.58
2023-09-22T04:47:33.399Z,18.61
2023-09-22T04:48:08.850Z,18.66
2023-09-22T04:48:41.046Z,18.65
2023-09-22T04:49:13.068Z,18.64
2023-09-22T04:49:45.061Z,18.68
2023-09-22T04:50:18.983Z,18.67
2023-09-22T04:50:57.169Z,18.67
2023-09-22T04:51:29.353Z,18.69
2023-09-22T04:52:04.209Z,18.74
2023-09-22T04:52:36.264Z,18.78
2023-09-22T04:53:09.560Z,18.81
2023-09-22T04:53:42.590Z,18.82
2023-09-22T04:54:14.568Z,18.80
2023-09-22T04:54:46.526Z,18.84
2023-09-22T04:55:19.491Z,18.89
2023-09-22T04:56:04.816Z,18.94
2023-09-22T04:56:36.721Z,18.96
2023-09-22T04:57:08.622Z,18.94
2023-09-22T04:57:42.045Z,18.97
2023-09-22T04:58:15.665Z,18.96
2023-09-22T04:58:48.774Z,18.95
2023-09-22T04:59:20.724Z,18.97
2023-09-22T04:59:54.529Z,18.99
2023-09-22T05:00:28.378Z,19.00
2023-09-22T05:01:02.854Z,18.98
2023-09-22T05:01:34.962Z,18.98
2023-09-22T05:02:06.954Z,19.00
2023-09-22T05:02:39.019Z,18.99
2023-09-22T05:03:11.677Z,19.05
2023-09-22T05:03:44.344Z,19.05
2023-09-22T05:04:16.630Z,19.03
2023-09-22T05:04:49.294Z,19.03
2023-09-22T05:05:23.522Z,19.05
2023-09-22T05:05:56.060Z,19.08
2023-09-22T05:06:29.237Z,19.07
2023-09-22T05:07:01.246Z,19.09
2023-09-22T05:07:34.849Z,19.12
2023-09-22T05:08:06.842Z,19.12
2023-09-22T05:08:38.860Z,19.14
2023-09-22T05:09:12.110Z,19.17
2023-09-22T05:09:45.158Z,19.21
2023-09-22T05:10:17.403Z,19.22
2023-09-22T05:10:49.356Z,19.25
2023-09-22T05:11:21.652Z,19.21
2023-09-22T05:11:53.594Z,19.26
2023-09-22T05:12:25.609Z,19.28
2023-09-22T05:13:00.107Z,19.28
2023-09-22T05:13:34.231Z,19.30
2023-09-22T05:14:06.144Z,19.33
2023-09-22T05:14:38.239Z,19.32
2023-09-22T05:15:10.824Z,19.28
2023-09-22T05:15:44.626Z,19.24
2023-09-22T05:16:19.551Z,19.27
2023-09-22T05:16:52.149Z,19.29
2023-09-22T05:17:24.479Z,19.29
2023-09-22T05:17:56.524Z,19.30
2023-09-22T05:18:28.511Z,19.29
2023-09-22T05:19:03.850Z,19.29
2023-09-22T05:19:35.793Z,19.27
2023-09-22T05:20:13.576Z,19.26
2023-09-22T05:20:46.044Z,19.28
2023-09-22T05:21:18.281Z,19.27
2023-09-22T05:21:50.232Z,19.32
2023-09-22T05:22:22.340Z,19.33
2023-09-22T05:22:54.310Z,19.30
2023-09-22T05:23:26.252Z,19.33
2023-09-22T05:23:58.171Z,19.31
2023-09-22T05:24:30.489Z,19.28
2023-09-22T05:25:02.474Z,19.27
2023-09-22T05:25:39.615Z,19.22
2023-09-22T05:26:11.558Z,19.20
2023-09-22T05:26:43.627Z,19.20
2023-09-22T05:27:16.455Z,19.18
2023-09-22T05:27:49.424Z,19.27
2023-09-22T05:28:21.400Z,19.29
2023-09-22T05:28:53.334Z,19.32
2023-09-22T05:29:25.300Z,19.31
2023-09-22T05:29:57.232Z,19.25
2023-09-22T05:30:29.656Z,19.26
2023-09-22T05:31:01.975Z,19.26
2023-09-22T05:31:37.687Z,19.25
2023-09-22T05:32:10.895Z,19.27
2023-09-22T05:32:49.531Z,19.20
2023-09-22T05:33:21.573Z,19.27
2023-09-22T05:33:53.941Z,19.21
2023-09-22T05:34:25.952Z,19.24
2023-09-22T05:34:58.911Z,19.27
2023-09-22T05:35:30.980Z,19.28
2023-09-22T05:36:06.290Z,19.26
2023-09-22T05:36:41.431Z,19.29
2023-09-22T05:37:13.367Z,19.30
2023-09-22T05:37:52.095Z,19.28
2023-09-22T05:38:24.104Z,19.26
2023-09-22T05:38:56.068Z,19.27
2023-09-22T05:39:28.182Z,19.32
2023-09-22T05:40:00.718Z,19.31
2023-09-22T05:40:36.047Z,19.30
2023-09-22T05:41:10.188Z,19.35
2023-09-22T05:41:49.052Z,19.38
2023-09-22T05:42:20.971Z,19.40
2023-09-22T05:42:53.045Z,19.43
2023-09-22T05:43:25.089Z,19.43
2023-09-22T05:43:57.794Z,19.48
2023-09-22T05:44:30.447Z,19.46
2023-09-22T05:45:06.242Z,19.45
2023-09-22T05:45:38.346Z,19.47
2023-09-22T05:46:10.398Z,19.45
2023-09-22T05:46:42.576Z,19.45
2023-09-22T05:47:14.538Z,19.50
2023-09-22T05:47:46.570Z,19.57
2023-09-22T05:48:18.584Z,19.59
2023-09-22T05:48:50.786Z,19.57
2023-09-22T05:49:23.035Z,19.60
2023-09-22T05:49:55.136Z,19.61
2023-09-22T05:50:27.094Z,19.65
2023-09-22T05:51:01.024Z,19.64
2023-09-22T05:51:33.596Z,19.63
2023-09-22T05:52:05.634Z,19.57
2023-09-22T05:52:41.456Z,19.59
2023-09-22T05:53:15.045Z,19.67
2023-09-22T05:53:46.971Z,19.68
2023-09-22T05:54:18.917Z,19.73
2023-09-22T05:54:50.982Z,19.80
2023-09-22T05:55:29.173Z,19.80
2023-09-22T05:56:09.701Z,19.85
2023-09-22T05:56:41.878Z,19.85
2023-09-22T05:57:13.971Z,19.82
2023-09-22T05:57:47.272Z,19.84
2023-09-22T05:58:19.246Z,19.81
2023-09-22T05:58:51.169Z,19.88
2023-09-22T05:59:23.530Z,19.92
2023-09-22T05:59:56.814Z,19.93
2023-09-22T06:00:32.350Z,19.91
2023-09-22T06:01:08.713Z,19.91
2023-09-22T06:01:41.063Z,19.86
2023-09-22T06:02:13.062Z,19.90
2023-09-22T06:02:48.817Z,19.92
2023-09-22T06:03:21.698Z,19.90
2023-09-22T06:03:53.735Z,19.95
2023-09-22T06:04:26.404Z,19.96
2023-09-22T06:04:59.903Z,19.93
2023-09-22T06:05:32.855Z,19.88
2023-09-22T06:06:12.546Z,19.90
2023-09-22T06:06:44.692Z,19.95
2023-09-22T06:07:16.618Z,19.96
2023-09-22T06:07:48.558Z,19.94
2023-09-22T06:08:20.470Z,20.04
2023-09-22T06:08:52.417Z,20.09
2023-09-22T06:09:24.326Z,20.10
2023-09-22T06:09:56.277Z,20.13
2023-09-22T06:10:28.229Z,20.12
2023-09-22T06:11:02.890Z,20.21
2023-09-22T06:11:34.801Z,20.25
2023-09-22T06:12:07.585Z,20.26
2023-09-22T06:12:39.578Z,20.30
2023-09-22T06:13:11.553Z,20.30
2023-09-22T06:13:43.919Z,20.35
2023-09-22T06:14:16.920Z,20.41
2023-09-22T06:14:48.870Z,20.44
2023-09-22T06:15:20.777Z,20.47
2023-09-22T06:15:53.198Z,20.53
2023-09-22T06:16:27.117Z,20.57
2023-09-22T06:16:59.136Z,20.61
2023-09-22T06:17:31.518Z,20.62
2023-09-22T06:18:06.132Z,20.60
2023-09-22T06:18:38.988Z,20.54
2023-09-22T06:19:11.788Z,20.58
2023-09-22T06:19:43.787Z,20.65
2023-09-22T06:20:17.266Z,20.73
2023-09-22T06:20:50.308Z,20.78
2023-09-22T06:21:22.464Z,20.80
2023-09-22T06:21:54.437Z,20.73
2023-09-22T06:22:27.085Z,20.78
2023-09-22T06:22:59.070Z,20.75
2023-09-22T06:23:31.549Z,20.81
2023-09-22T06:24:03.656Z,20.84
2023-09-22T06:24:35.756Z,20.86
2023-09-22T06:25:09.428Z,20.87
2023-09-22T06:25:41.457Z,20.76
2023-09-22T06:26:13.369Z,20.73
2023-09-22T06:26:45.395Z,20.72
2023-09-22T06:27:17.650Z,20.78
2023-09-22T06:27:52.469Z,20.84
2023-09-22T06:28:26.834Z,20.89
2023-09-22T06:28:58.867Z,20.88
2023-09-22T06:29:30.803Z,20.89
2023-09-22T06:30:04.515Z,20.92
2023-09-22T06:30:36.514Z,20.92
2023-09-22T06:31:08.609Z,20.92
2023-09-22T06:31:40.651Z,20.96
2023-09-22T06:32:12.609Z,21.01
2023-09-22T06:32:47.188Z,21.04
2023-09-22T06:33:19.894Z,21.05
2023-09-22T06:33:51.968Z,21.07
2023-09-22T06:34:23.981Z,21.09
2023-09-22T06:34:57.062Z,21.14
2023-09-22T06:35:29.122Z,21.12
2023-09-22T06:36:05.921Z,21.13
2023-09-22T06:36:37.935Z,21.19
2023-09-22T06:37:10.440Z,21.25
2023-09-22T06:37:42.827Z,21.26
2023-09-22T06:38:15.370Z,21.35
2023-09-22T06:38:47.392Z,21.38
2023-09-22T06:39:19.347Z,21.40
2023-09-22T06:39:51.408Z,21.44
2023-09-22T06:40:23.352Z,21.40
2023-09-22T06:40:56.589Z,21.41
2023-09-22T06:41:28.541Z,21.45
2023-09-22T06:42:00.854Z,21.53
2023-09-22T06:42:32.881Z,21.46
2023-09-22T06:43:17.048Z,21.44
2023-09-22T06:43:58.566Z,21.51
2023-09-22T06:44:30.967Z,21.60
2023-09-22T06:45:03.508Z,21.69
2023-09-22T06:45:40.193Z,21.68
2023-09-22T06:46:12.599Z,21.72
2023-09-22T06:46:44.623Z,21.80
2023-09-22T06:47:16.615Z,21.86
2023-09-22T06:47:50.072Z,21.82
2023-09-22T06:48:29.288Z,21.93
2023-09-22T06:49:01.308Z,21.75
2023-09-22T06:49:37.468Z,21.81
2023-09-22T06:50:10.825Z,21.91
2023-09-22T06:50:42.792Z,21.95
2023-09-22T06:51:19.637Z,22.01
2023-09-22T06:51:52.184Z,21.89
2023-09-22T06:52:24.238Z,21.97
2023-09-22T06:52:56.137Z,21.99
2023-09-22T06:53:29.599Z,22.07
2023-09-22T06:54:01.581Z,22.19
2023-09-22T06:54:33.587Z,22.33
2023-09-22T06:55:16.259Z,22.41
2023-09-22T06:55:49.409Z,22.58
2023-09-22T06:56:24.843Z,22.58
2023-09-22T06:57:04.154Z,22.68
2023-09-22T06:57:37.707Z,22.76
2023-09-22T06:58:09.733Z,22.75
2023-09-22T06:58:42.092Z,22.78
2023-09-22T06:59:14.736Z,22.80
2023-09-22T06:59:46.656Z,22.80
2023-09-22T07:00:23.997Z,22.75
2023-09-22T07:00:57.892Z,22.87
2023-09-22T07:01:30.129Z,22.99
2023-09-22T07:02:02.477Z,23.09
2023-09-22T07:02:34.469Z,23.17